aviador You're here:

KGGI Decoded Metar

GRINNELL REG in IA, USA
Report Time2017-05-24 17:55:00
UTC Time2017-05-24 17:53:14
Flight Rules mvfr MVFR
Wind350° at 13 Gusting to 18 kt
W.Decomp.*RWY 31: 10.2 kt HW 8.0 kt RCW
W.Rank350° ranks 27
Current wind is above 350° avg. (8.8)
Visibility9999 m
Phenomena:N/A
Clouds:Scattered 020 Hf
Overcast 028 Hf
Expected CloudBase > 1,600 ft AGL from Temp-Dew spread
Ceiling2,800 ft
Temp14°C (ISA +1)
Dew Point10°C (77% RH)
AAT9.4°C
QNH1005 hPa
Density Alt1,565 ft
Elevation1,007 ft
Report Wrong Elevation
Raw Report
KGGI 241755Z AUTO 35013G18KT 10SM SCT020 OVC028 14/10 A2968 RMK
AO2 T01440103 10144 20107=

Extra information for KGGI:More info

Metar Taf Metar & Taf Last 4 Metars F.Rules Stats Wind Profile Meteogram Temp Stats Airport Information Weather charts Add Link Nearby VenuesMetar ALERT Operation Metar Decoded Social comments

AIRNAV info for KGGI